Kansas City, Kansas
Current Conditions -  °F | °C
As of 9:54 AM on Saturday 25 Oct 2014 (Local Time) from KMKC Reporting Station
Moderate Fog Moderate Fog  
Wind Chill: 58°   Ceiling: 100
Heat Index: 58°   Visibility: 0mi
Dew Point: 58°   Wind: 0mph
Humidity: 100%   Direction: NA
Pressure: 30.07"   Gusts: NA
Location:  39.11°N, 94.63°W
Report Text: KMKC 251454Z 00000KT M1/4SM FG VV001 14/14 A3007 RMK AO2 SLP179 T01440144 53010
Loading
Personal Weather Stations






























Interactive Weather Map New forecast layout! Learn more

10-Day Weather Forecast

Advertisements
Track Severe Weather on mobile